Time;durP1;ratioP1;P1;durP2;ratioP2;P2;SDS_P1;SDS_P2;PMS_P1;PMS_P2;Temp;Humidity;BMP_temperature;BMP_pressure;BME280_temperature;BME280_humidity;BME280_pressure;Samples;Min_cycle;Max_cycle;Signal;HPM_P1;HPM_P2
2022/04/03 00:01:45;;;;;;;4.88;2.90;;;;;;;-0.96;100.00;102316.03;5267638;28;20513;-78
2022/04/03 00:04:15;;;;;;;5.20;2.58;;;;;;;-1.01;100.00;102314.47;5267061;28;20024;-78
2022/04/03 00:06:46;;;;;;;5.68;2.30;;;;;;;-1.07;100.00;102319.06;5267574;28;20024;-78
2022/04/03 00:09:16;;;;;;;9.30;2.75;;;;;;;-1.11;100.00;102319.22;5250482;28;20035;-78
2022/04/03 00:11:47;;;;;;;6.82;2.38;;;;;;;-1.12;100.00;102321.00;5268388;28;20502;-78
2022/04/03 00:14:17;;;;;;;6.90;2.28;;;;;;;-1.11;100.00;102321.84;5245447;28;20024;-77
2022/04/03 00:16:48;;;;;;;3.75;2.50;;;;;;;-1.03;100.00;102321.59;5260944;28;20059;-80
2022/04/03 00:19:18;;;;;;;8.38;2.25;;;;;;;-0.95;100.00;102325.66;5269263;28;20024;-79
2022/04/03 00:21:49;;;;;;;5.30;2.05;;;;;;;-0.92;100.00;102330.81;5249190;28;20081;-77
2022/04/03 00:24:20;;;;;;;7.15;2.30;;;;;;;-0.88;100.00;102329.78;5266841;28;20043;-75
2022/04/03 00:26:50;;;;;;;6.15;2.38;;;;;;;-0.95;100.00;102327.44;5267226;28;20024;-76
2022/04/03 00:29:23;;;;;;;5.38;2.13;;;;;;;-0.97;100.00;102338.03;5267232;28;20027;-76
2022/04/03 00:31:53;;;;;;;7.38;2.55;;;;;;;-0.99;100.00;102331.09;5266827;28;20043;-76
2022/04/03 00:34:24;;;;;;;5.78;2.33;;;;;;;-1.06;100.00;102333.94;5266848;28;20024;-77
2022/04/03 00:36:54;;;;;;;7.85;2.60;;;;;;;-1.00;100.00;102324.97;5267061;28;20624;-76
2022/04/03 00:39:24;;;;;;;10.07;3.03;;;;;;;-1.00;100.00;102327.63;5267132;28;20106;-76
2022/04/03 00:41:55;;;;;;;5.80;2.55;;;;;;;-1.01;100.00;102327.66;5253339;28;20108;-76
2022/04/03 00:44:26;;;;;;;5.88;2.28;;;;;;;-1.08;100.00;102324.38;5266082;28;20028;-76
2022/04/03 00:46:57;;;;;;;4.85;2.50;;;;;;;-1.17;100.00;102324.72;5266788;28;20024;-76
2022/04/03 00:49:28;;;;;;;8.98;2.63;;;;;;;-1.26;100.00;102318.00;5267159;28;20045;-76
2022/04/03 00:51:59;;;;;;;8.93;2.90;;;;;;;-1.35;100.00;102327.09;5266794;28;20160;-77
2022/04/03 00:54:29;;;;;;;9.48;2.53;;;;;;;-1.34;100.00;102327.94;5266549;28;20098;-77
2022/04/03 00:57:02;;;;;;;6.50;2.50;;;;;;;-1.28;100.00;102326.88;5267153;28;20108;-77
2022/04/03 00:59:34;;;;;;;4.45;2.22;;;;;;;-1.30;100.00;102329.56;5266588;28;20024;-77
2022/04/03 01:02:05;;;;;;;6.45;2.58;;;;;;;-1.36;100.00;102325.34;5248672;28;20439;-77
2022/04/03 01:04:37;;;;;;;6.40;2.65;;;;;;;-1.38;100.00;102326.31;5248276;28;20102;-77
2022/04/03 01:07:13;;;;;;;5.53;2.40;;;;;;;-1.40;100.00;102328.16;5266546;28;20030;-77
2022/04/03 01:09:44;;;;;;;7.07;2.60;;;;;;;-1.47;100.00;102324.00;5248951;28;20414;-77
2022/04/03 01:12:15;;;;;;;5.63;3.13;;;;;;;-1.47;100.00;102326.66;5266710;28;20028;-77
2022/04/03 01:14:46;;;;;;;5.82;2.40;;;;;;;-1.52;100.00;102326.81;5257628;28;20031;-77
2022/04/03 01:17:16;;;;;;;8.30;2.90;;;;;;;-1.50;100.00;102325.00;5262631;28;20383;-77
2022/04/03 01:19:47;;;;;;;6.82;2.35;;;;;;;-1.45;100.00;102327.47;5266459;28;20427;-77
2022/04/03 01:22:38;;;;;;;4.75;2.40;;;;;;;-1.42;100.00;102329.97;5266494;28;20024;-76
2022/04/03 01:25:28;;;;;;;7.55;2.60;;;;;;;-1.46;100.00;102323.09;5266024;28;20020;-77
2022/04/03 01:27:59;;;;;;;4.90;2.00;;;;;;;-1.47;100.00;102324.88;5266146;28;20039;-77
2022/04/03 01:30:29;;;;;;;4.97;2.33;;;;;;;-1.42;100.00;102327.34;5268543;28;20020;-77
2022/04/03 01:33:00;;;;;;;6.07;2.90;;;;;;;-1.38;100.00;102326.31;5271219;28;20414;-77
2022/04/03 01:35:30;;;;;;;7.60;2.70;;;;;;;-1.41;100.00;102318.53;5270508;28;20027;-76
2022/04/03 01:38:01;;;;;;;5.78;2.50;;;;;;;-1.39;100.00;102317.56;5270625;28;20027;-77
2022/04/03 01:40:34;;;;;;;4.75;2.35;;;;;;;-1.46;100.00;102318.69;5262469;28;20361;-77
2022/04/03 01:43:06;;;;;;;7.75;3.25;;;;;;;-1.44;100.00;102319.50;5267286;28;20020;-77
2022/04/03 01:45:39;;;;;;;8.32;2.80;;;;;;;-1.48;100.00;102317.03;5269730;28;20063;-77
2022/04/03 01:48:10;;;;;;;6.78;2.47;;;;;;;-1.48;100.00;102317.88;5270681;28;20026;-76
2022/04/03 01:50:40;;;;;;;6.32;2.65;;;;;;;-1.52;100.00;102321.53;5272138;28;20482;-77
2022/04/03 01:53:12;;;;;;;6.88;3.75;;;;;;;-1.59;100.00;102312.13;5272342;28;20438;-76
2022/04/03 01:55:43;;;;;;;5.95;2.65;;;;;;;-1.69;100.00;102308.97;5271218;28;20411;-76
2022/04/03 01:58:15;;;;;;;5.15;2.65;;;;;;;-1.75;100.00;102310.94;5271556;28;20034;-77
2022/04/03 02:00:46;;;;;;;8.73;2.88;;;;;;;-1.81;100.00;102304.09;5272063;28;20110;-76
2022/04/03 02:03:18;;;;;;;8.68;2.78;;;;;;;-1.85;100.00;102313.03;5271851;28;20020;-77
2022/04/03 02:05:48;;;;;;;14.90;3.58;;;;;;;-1.90;100.00;102299.16;5270950;28;20402;-76
2022/04/03 02:08:19;;;;;;;9.60;3.28;;;;;;;-1.90;100.00;102305.28;5253379;28;20383;-77
2022/04/03 02:10:50;;;;;;;6.97;3.20;;;;;;;-1.90;100.00;102301.78;5272474;28;20089;-76
2022/04/03 02:13:20;;;;;;;9.85;3.22;;;;;;;-1.92;100.00;102296.56;5254975;28;20048;-76
2022/04/03 02:15:51;;;;;;;11.13;3.20;;;;;;;-1.88;100.00;102308.72;5264006;28;20073;-77
2022/04/03 02:18:21;;;;;;;7.10;2.90;;;;;;;-1.76;100.00;102314.47;5252797;28;20016;-77
2022/04/03 02:20:52;;;;;;;8.65;3.45;;;;;;;-1.74;100.00;102310.88;5270774;28;20024;-77
2022/04/03 02:23:23;;;;;;;8.38;3.58;;;;;;;-1.75;100.00;102303.06;5270606;28;20174;-77
2022/04/03 02:25:53;;;;;;;6.05;2.97;;;;;;;-1.71;100.00;102304.66;5270009;28;20078;-77
2022/04/03 02:28:24;;;;;;;7.30;2.70;;;;;;;-1.76;100.00;102310.06;5269625;28;20028;-77
2022/04/03 02:30:54;;;;;;;7.57;3.08;;;;;;;-1.80;100.00;102308.47;5269899;28;20024;-77
2022/04/03 02:33:25;;;;;;;7.82;3.22;;;;;;;-1.79;100.00;102314.59;5269730;28;20392;-77
2022/04/03 02:35:55;;;;;;;12.80;3.42;;;;;;;-1.87;100.00;102307.78;5269388;28;20035;-77
2022/04/03 02:38:26;;;;;;;9.20;3.15;;;;;;;-1.90;100.00;102309.69;5269480;28;20020;-77
2022/04/03 02:40:56;;;;;;;7.35;3.08;;;;;;;-1.97;100.00;102309.00;5256922;28;20037;-77
2022/04/03 02:43:27;;;;;;;12.05;3.40;;;;;;;-2.02;100.00;102304.81;5267797;28;20016;-78
2022/04/03 02:45:57;;;;;;;11.55;3.22;;;;;;;-2.10;100.00;102300.66;5268875;28;20111;-76
2022/04/03 02:48:28;;;;;;;10.30;3.05;;;;;;;-2.22;100.00;102298.41;5269302;28;20044;-77
2022/04/03 02:50:58;;;;;;;7.15;3.58;;;;;;;-2.37;100.00;102298.91;5269198;28;20020;-77
2022/04/03 02:53:29;;;;;;;11.32;3.47;;;;;;;-2.53;100.00;102298.53;5268989;28;20028;-77
2022/04/03 02:55:59;;;;;;;9.00;3.22;;;;;;;-2.67;100.00;102298.94;5268601;28;20080;-77
2022/04/03 02:58:30;;;;;;;10.27;3.00;;;;;;;-2.77;100.00;102304.50;5269489;28;20764;-77
2022/04/03 03:01:00;;;;;;;9.50;3.47;;;;;;;-2.90;100.00;102301.41;5268961;28;20475;-77
2022/04/03 03:03:31;;;;;;;6.88;3.15;;;;;;;-2.98;100.00;102311.25;5269065;28;20020;-77
2022/04/03 03:06:02;;;;;;;8.63;3.38;;;;;;;-3.08;100.00;102299.28;5268158;28;20024;-77
2022/04/03 03:08:33;;;;;;;6.70;3.33;;;;;;;-3.17;100.00;102310.91;5269275;28;20110;-77
2022/04/03 03:11:03;;;;;;;7.82;3.67;;;;;;;-3.25;100.00;102305.03;5268778;28;20027;-77
2022/04/03 03:13:34;;;;;;;15.10;3.90;;;;;;;-3.32;100.00;102312.19;5268668;28;20471;-77
2022/04/03 03:16:05;;;;;;;7.38;3.13;;;;;;;-3.35;100.00;102314.03;5256218;28;20034;-77
2022/04/03 03:18:35;;;;;;;12.07;3.78;;;;;;;-3.40;100.00;102308.91;5268518;28;20054;-77
2022/04/03 03:21:06;;;;;;;5.45;3.20;;;;;;;-3.43;100.00;102309.84;5268610;28;20547;-76
2022/04/03 03:23:40;;;;;;;8.50;3.35;;;;;;;-3.31;100.00;102306.06;5268524;28;20116;-77
2022/04/03 03:26:10;;;;;;;15.30;4.10;;;;;;;-3.28;100.00;102311.19;5268040;28;20437;-77
2022/04/03 03:28:41;;;;;;;13.13;3.83;;;;;;;-3.22;100.00;102308.41;5268684;28;20048;-77
2022/04/03 03:31:12;;;;;;;12.90;4.13;;;;;;;-3.14;100.00;102316.06;5268422;28;20390;-77
2022/04/03 03:33:42;;;;;;;13.00;4.15;;;;;;;-3.17;100.00;102313.53;5268177;28;20030;-77
2022/04/03 03:36:13;;;;;;;11.98;4.15;;;;;;;-3.22;100.00;102315.41;5267996;28;20069;-77
2022/04/03 03:38:44;;;;;;;20.90;4.18;;;;;;;-3.31;100.00;102319.16;5268507;28;20020;-77
2022/04/03 03:41:14;;;;;;;8.27;3.60;;;;;;;-3.39;100.00;102321.13;5254594;28;20020;-77
2022/04/03 03:43:45;;;;;;;10.80;4.68;;;;;;;-3.46;100.00;102325.69;5268166;28;20024;-77
2022/04/03 03:46:15;;;;;;;13.88;5.43;;;;;;;-3.53;100.00;102321.47;5267291;28;20034;-77
2022/04/03 03:48:46;;;;;;;15.00;4.53;;;;;;;-3.57;100.00;102318.97;5268242;28;20124;-77
2022/04/03 03:51:16;;;;;;;14.73;5.28;;;;;;;-3.59;100.00;102333.91;5249998;28;20024;-77
2022/04/03 03:53:47;;;;;;;11.32;4.50;;;;;;;-3.60;100.00;102327.81;5249096;28;20085;-77
2022/04/03 03:56:18;;;;;;;12.63;4.32;;;;;;;-3.62;100.00;102326.97;5267273;28;20495;-77
2022/04/03 03:58:49;;;;;;;14.85;4.25;;;;;;;-3.62;100.00;102329.59;5267991;28;20039;-77
2022/04/03 04:01:20;;;;;;;8.65;3.58;;;;;;;-3.61;100.00;102326.09;5267850;28;20387;-77
2022/04/03 04:03:51;;;;;;;10.95;3.90;;;;;;;-3.58;100.00;102331.25;5267704;28;20051;-77
2022/04/03 04:06:22;;;;;;;10.27;4.20;;;;;;;-3.56;100.00;102332.06;5266947;28;20038;-77
2022/04/03 04:08:52;;;;;;;10.98;4.05;;;;;;;-3.53;100.00;102339.84;5267843;28;20024;-77
2022/04/03 04:11:23;;;;;;;6.65;3.70;;;;;;;-3.47;100.00;102341.44;5267583;28;20032;-77
2022/04/03 04:13:53;;;;;;;8.73;3.47;;;;;;;-3.38;100.00;102347.31;5266084;28;20039;-77
2022/04/03 04:16:24;;;;;;;8.80;3.88;;;;;;;-3.30;100.00;102348.91;5256345;28;20050;-77
2022/04/03 04:18:55;;;;;;;12.40;3.95;;;;;;;-3.29;100.00;102348.84;5266415;28;20028;-77
2022/04/03 04:21:25;;;;;;;9.18;3.38;;;;;;;-3.24;100.00;102346.09;5267509;28;20494;-77
2022/04/03 04:23:55;;;;;;;12.77;3.80;;;;;;;-3.22;100.00;102347.78;5267360;28;20039;-77
2022/04/03 04:26:26;;;;;;;7.72;2.92;;;;;;;-3.20;100.00;102347.75;5267020;28;20051;-77
2022/04/03 04:28:56;;;;;;;8.45;4.10;;;;;;;-3.23;100.00;102348.69;5267253;28;20094;-77
2022/04/03 04:31:27;;;;;;;8.50;3.92;;;;;;;-3.25;100.00;102349.63;5267120;28;20082;-77
2022/04/03 04:33:58;;;;;;;7.22;3.90;;;;;;;-3.30;100.00;102352.38;5267222;28;20024;-76
2022/04/03 04:36:29;;;;;;;10.77;4.45;;;;;;;-3.28;100.00;102353.19;5266834;28;20026;-77
2022/04/03 04:39:00;;;;;;;10.40;4.07;;;;;;;-3.24;100.00;102360.09;5267334;28;20082;-77
2022/04/03 04:41:31;;;;;;;7.13;4.03;;;;;;;-3.25;100.00;102355.75;5253179;28;20020;-77
2022/04/03 04:44:01;;;;;;;9.18;4.03;;;;;;;-3.28;100.00;102354.97;5266525;28;20042;-76
2022/04/03 04:46:33;;;;;;;13.45;4.30;;;;;;;-3.31;100.00;102355.91;5248643;28;20567;-77
2022/04/03 04:49:04;;;;;;;7.55;3.70;;;;;;;-3.34;100.00;102358.59;5267076;28;20020;-77
2022/04/03 04:51:34;;;;;;;5.53;3.30;;;;;;;-3.38;100.00;102359.59;5266937;28;20498;-77
2022/04/03 04:54:05;;;;;;;11.77;4.18;;;;;;;-3.43;100.00;102361.47;5266691;28;20054;-77
2022/04/03 04:56:36;;;;;;;9.70;4.90;;;;;;;-3.55;100.00;102356.56;5266989;28;20028;-77
2022/04/03 04:59:06;;;;;;;13.63;5.00;;;;;;;-3.64;100.00;102365.50;5266773;28;20020;-77
2022/04/03 05:01:37;;;;;;;10.20;4.50;;;;;;;-3.73;100.00;102370.97;5266839;28;20402;-76
2022/04/03 05:04:08;;;;;;;10.77;5.20;;;;;;;-3.85;100.00;102376.53;5266131;28;20078;-76
2022/04/03 05:06:39;;;;;;;12.50;4.70;;;;;;;-3.95;100.00;102375.88;5266656;28;20069;-76
2022/04/03 05:09:10;;;;;;;11.27;4.43;;;;;;;-4.06;100.00;102375.28;5266454;28;20028;-79
2022/04/03 05:11:41;;;;;;;10.68;5.10;;;;;;;-4.17;100.00;102389.50;5248782;28;20024;-78
2022/04/03 05:14:13;;;;;;;11.68;4.47;;;;;;;-4.25;100.00;102383.53;5262114;28;20478;-78
2022/04/03 05:16:44;;;;;;;13.60;4.80;;;;;;;-4.31;100.00;102378.44;5258605;28;20016;-74
2022/04/03 05:19:15;;;;;;;11.27;4.55;;;;;;;-4.32;100.00;102378.47;5266316;28;20372;-76
2022/04/03 05:21:46;;;;;;;10.57;4.57;;;;;;;-4.35;100.00;102384.63;5248948;28;20040;-75
2022/04/03 05:24:16;;;;;;;11.38;5.38;;;;;;;-4.40;100.00;102385.63;5265897;28;20387;-75
2022/04/03 05:26:47;;;;;;;9.38;4.85;;;;;;;-4.48;100.00;102389.28;5266459;28;20101;-74
2022/04/03 05:29:17;;;;;;;10.43;5.38;;;;;;;-4.49;100.00;102398.03;5266611;28;20028;-74
2022/04/03 05:31:48;;;;;;;11.45;5.03;;;;;;;-4.49;100.00;102391.94;5266142;28;20031;-75
2022/04/03 05:34:18;;;;;;;13.13;5.53;;;;;;;-4.48;100.00;102399.75;5266249;28;20020;-76
2022/04/03 05:36:49;;;;;;;10.85;4.90;;;;;;;-4.46;100.00;102397.13;5266527;28;20050;-75
2022/04/03 05:39:19;;;;;;;10.60;4.65;;;;;;;-4.43;100.00;102405.75;5266447;28;20058;-76
2022/04/03 05:41:54;;;;;;;10.73;5.63;;;;;;;-4.39;100.00;102401.31;5252637;28;20168;-78
2022/04/03 05:44:24;;;;;;;12.27;5.20;;;;;;;-4.32;100.00;102402.03;5265436;28;20042;-76
2022/04/03 05:46:55;;;;;;;12.63;5.68;;;;;;;-4.26;100.00;102413.28;5266443;28;20387;-74
2022/04/03 05:49:25;;;;;;;14.02;5.82;;;;;;;-4.19;100.00;102404.38;5266334;28;20062;-75
2022/04/03 05:51:56;;;;;;;13.98;5.80;;;;;;;-4.12;100.00;102409.47;5266658;28;20433;-75
2022/04/03 05:54:26;;;;;;;15.57;6.18;;;;;;;-4.06;100.00;102411.97;5266181;28;20516;-75
2022/04/03 05:56:57;;;;;;;13.88;5.45;;;;;;;-4.02;100.00;102409.22;5266186;28;20051;-75
2022/04/03 05:59:27;;;;;;;12.18;5.70;;;;;;;-3.94;100.00;102417.78;5266347;28;20027;-75
2022/04/03 06:01:58;;;;;;;12.13;5.93;;;;;;;-3.83;100.00;102416.69;5266202;28;20416;-75
2022/04/03 06:04:28;;;;;;;11.02;5.45;;;;;;;-3.72;100.00;102420.75;5265504;28;20023;-74
2022/04/03 06:06:59;;;;;;;17.27;5.80;;;;;;;-3.60;100.00;102417.00;5265728;28;20039;-75
2022/04/03 06:09:29;;;;;;;19.92;6.00;;;;;;;-3.30;100.00;102414.50;5266299;28;20360;-75
2022/04/03 06:12:00;;;;;;;10.02;5.40;;;;;;;-2.70;100.00;102421.66;5265771;28;20032;-75
2022/04/03 06:14:30;;;;;;;13.35;5.35;;;;;;;-1.92;100.00;102421.97;5258977;28;20016;-75
2022/04/03 06:17:00;;;;;;;11.80;5.20;;;;;;;-1.28;100.00;102425.16;5265860;28;20150;-75
2022/04/03 06:19:31;;;;;;;11.73;4.85;;;;;;;-0.70;100.00;102423.13;5270028;28;20043;-75
2022/04/03 06:22:01;;;;;;;12.80;4.95;;;;;;;-0.08;100.00;102424.34;5269432;28;20501;-75
2022/04/03 06:24:32;;;;;;;11.18;5.50;;;;;;;0.42;100.00;102411.75;5269265;28;20480;-75
2022/04/03 06:27:02;;;;;;;8.68;4.78;;;;;;;0.96;100.00;102409.53;5269569;28;20117;-75
2022/04/03 06:29:33;;;;;;;13.02;5.95;;;;;;;1.62;100.00;102403.94;5269867;28;20050;-75
2022/04/03 06:32:04;;;;;;;16.50;6.50;;;;;;;2.41;100.00;102399.25;5269564;28;20031;-75
2022/04/03 06:34:34;;;;;;;16.52;6.53;;;;;;;2.85;100.00;102397.03;5268897;28;20024;-75
2022/04/03 06:37:05;;;;;;;10.43;5.72;;;;;;;3.24;100.00;102403.84;5269765;28;20052;-75
2022/04/03 06:39:35;;;;;;;13.77;5.38;;;;;;;3.17;100.00;102403.34;5268608;28;20115;-75
2022/04/03 06:42:07;;;;;;;9.52;5.57;;;;;;;3.51;100.00;102409.47;5256994;28;20115;-75
2022/04/03 06:44:39;;;;;;;10.82;5.38;;;;;;;3.95;100.00;102408.84;5268584;28;20027;-75
2022/04/03 06:47:10;;;;;;;10.13;5.30;;;;;;;4.32;100.00;102412.97;5251470;28;20027;-74
2022/04/03 06:49:41;;;;;;;12.65;5.65;;;;;;;4.29;100.00;102413.13;5269309;28;20020;-78
2022/04/03 06:52:11;;;;;;;9.18;5.03;;;;;;;4.23;100.00;102414.34;5269210;28;20032;-77
2022/04/03 06:54:42;;;;;;;14.93;5.47;;;;;;;4.55;100.00;102416.94;5269184;28;20030;-77
2022/04/03 06:57:14;;;;;;;9.75;5.40;;;;;;;5.14;100.00;102423.19;5268932;28;20026;-76
2022/04/03 06:59:47;;;;;;;13.23;4.82;;;;;;;5.64;100.00;102430.72;5269154;28;20028;-77
2022/04/03 07:02:17;;;;;;;12.68;5.22;;;;;;;5.79;100.00;102425.41;5268893;28;20063;-77
2022/04/03 07:04:47;;;;;;;13.63;6.40;;;;;;;5.43;100.00;102434.72;5268740;28;20044;-77
2022/04/03 07:07:37;;;;;;;8.88;5.13;;;;;;;5.59;100.00;102435.50;5269000;28;20070;-77
2022/04/03 07:10:09;;;;;;;9.82;5.43;;;;;;;5.79;100.00;102439.56;5269062;28;20020;-77
2022/04/03 07:12:40;;;;;;;11.95;6.05;;;;;;;5.71;100.00;102432.03;5251004;28;20038;-77
2022/04/03 07:15:12;;;;;;;15.30;5.80;;;;;;;6.14;100.00;102434.69;5238589;28;20032;-76
2022/04/03 07:17:43;;;;;;;8.07;5.05;;;;;;;6.31;100.00;102446.06;5269498;28;20066;-77
2022/04/03 07:20:14;;;;;;;13.95;5.32;;;;;;;6.45;100.00;102444.22;5269148;28;20097;-75
2022/04/03 07:22:45;;;;;;;9.23;5.43;;;;;;;6.48;100.00;102440.50;5268957;28;20028;-77
2022/04/03 07:25:15;;;;;;;8.73;4.95;;;;;;;6.48;100.00;102435.19;5267954;28;20061;-75
2022/04/03 07:27:45;;;;;;;8.73;5.05;;;;;;;6.60;100.00;102436.16;5268515;28;20107;-76
2022/04/03 07:30:16;;;;;;;9.95;5.07;;;;;;;7.15;100.00;102438.63;5268495;28;20024;-76
2022/04/03 07:32:46;;;;;;;8.05;4.18;;;;;;;7.73;100.00;102445.25;5268378;28;20102;-76
2022/04/03 07:35:17;;;;;;;11.18;4.57;;;;;;;8.44;88.18;102434.84;5268006;28;20551;-76
2022/04/03 07:37:47;;;;;;;12.43;4.97;;;;;;;8.66;91.33;102439.41;5268469;28;20058;-76
2022/04/03 07:40:18;;;;;;;11.43;4.68;;;;;;;9.84;75.61;102437.34;5261216;28;20028;-76
2022/04/03 07:42:49;;;;;;;9.70;4.97;;;;;;;10.14;68.05;102435.84;5261594;28;20085;-75
2022/04/03 07:45:20;;;;;;;11.32;4.80;;;;;;;8.86;80.71;102451.31;5249352;28;20036;-76
2022/04/03 07:47:50;;;;;;;7.80;4.93;;;;;;;8.44;88.49;102457.06;5267926;28;20039;-76
2022/04/03 07:50:21;;;;;;;13.82;5.88;;;;;;;8.83;84.34;102452.38;5268349;28;20085;-76
2022/04/03 07:52:52;;;;;;;7.60;3.25;;;;;;;10.17;69.73;102448.16;5267904;28;20028;-76
2022/04/03 07:55:22;;;;;;;8.20;3.05;;;;;;;10.95;61.38;102447.06;5267463;28;20024;-76
2022/04/03 07:57:53;;;;;;;5.20;2.65;;;;;;;10.77;62.33;102455.69;5267652;28;20111;-76
2022/04/03 08:00:23;;;;;;;6.07;2.75;;;;;;;10.96;58.83;102457.69;5267961;28;20032;-76
2022/04/03 08:02:53;;;;;;;11.77;3.22;;;;;;;9.99;64.77;102451.34;5267759;28;20016;-76
2022/04/03 08:05:24;;;;;;;7.60;3.05;;;;;;;10.42;60.55;102444.34;5267132;28;20384;-76
2022/04/03 08:07:55;;;;;;;8.90;2.67;;;;;;;11.39;56.92;102451.31;5267690;28;20480;-76
2022/04/03 08:10:26;;;;;;;3.08;2.08;;;;;;;11.87;51.85;102450.72;5249413;28;20023;-76
2022/04/03 08:12:56;;;;;;;3.55;2.20;;;;;;;10.70;57.01;102448.28;5267544;28;20030;-76
2022/04/03 08:15:28;;;;;;;2.58;1.40;;;;;;;9.63;56.99;102451.56;5254507;28;20105;-76
2022/04/03 08:17:58;;;;;;;6.60;2.10;;;;;;;9.27;58.46;102442.78;5267631;28;20028;-76
2022/04/03 08:20:29;;;;;;;8.77;1.92;;;;;;;10.15;58.16;102442.06;5267353;28;20073;-76
2022/04/03 08:23:03;;;;;;;8.68;1.52;;;;;;;11.23;55.40;102448.25;5267383;28;20379;-76
2022/04/03 08:25:34;;;;;;;3.92;1.90;;;;;;;12.75;47.59;102454.44;5267113;28;20036;-76
2022/04/03 08:28:04;;;;;;;5.03;1.48;;;;;;;12.12;48.67;102460.16;5267723;28;20028;-76
2022/04/03 08:30:37;;;;;;;3.65;1.52;;;;;;;10.87;55.26;102458.44;5267307;28;20392;-76
2022/04/03 08:33:09;;;;;;;3.83;1.60;;;;;;;10.46;54.96;102460.06;5267156;28;20028;-76
2022/04/03 08:35:40;;;;;;;1.98;1.20;;;;;;;11.57;53.35;102452.41;5266703;28;20028;-76
2022/04/03 08:38:11;;;;;;;3.55;1.10;;;;;;;12.22;48.90;102455.66;5267065;28;20019;-76
2022/04/03 08:40:43;;;;;;;4.43;1.30;;;;;;;10.70;51.75;102459.88;5256288;28;20035;-76
2022/04/03 08:43:13;;;;;;;4.22;1.77;;;;;;;10.65;54.90;102451.34;5264200;28;20491;-76
2022/04/03 08:45:44;;;;;;;2.47;1.35;;;;;;;11.21;54.68;102452.91;5248151;28;20039;-76
2022/04/03 08:48:19;;;;;;;6.25;1.30;;;;;;;12.56;48.65;102456.16;5266969;28;20020;-76
2022/04/03 08:50:50;;;;;;;;;;;;;;;12.34;48.83;102464.47;5267852;28;20070;-76
2022/04/03 08:53:23;;;;;;;2.47;1.30;;;;;;;12.93;47.01;102455.44;5266780;28;20359;-76
2022/04/03 08:55:53;;;;;;;3.70;1.67;;;;;;;12.81;45.30;102464.66;5266448;28;20043;-76
2022/04/03 08:58:23;;;;;;;1.75;0.98;;;;;;;12.34;46.09;102459.06;5267056;28;20032;-76
2022/04/03 09:00:56;;;;;;;3.38;1.30;;;;;;;11.85;48.08;102466.16;5266690;28;20114;-76
2022/04/03 09:03:26;;;;;;;6.78;1.73;;;;;;;12.04;48.18;102462.69;5266717;28;20024;-76
2022/04/03 09:06:30;;;;;;;2.03;1.40;;;;;;;11.92;46.66;102470.00;5266312;28;20031;-76
2022/04/03 09:09:02;;;;;;;2.95;1.73;;;;;;;10.36;51.75;102464.47;5266898;28;20064;-76
2022/04/03 09:11:33;;;;;;;6.25;3.05;;;;;;;11.13;52.28;102462.44;5266670;28;20426;-76
2022/04/03 09:14:11;;;;;;;4.85;1.50;;;;;;;12.09;47.17;102463.97;5263760;28;20051;-76
2022/04/03 09:16:42;;;;;;;4.63;1.35;;;;;;;12.09;49.87;102466.66;5258250;28;20031;-76
2022/04/03 09:19:12;;;;;;;6.20;1.67;;;;;;;12.24;46.46;102463.59;5266725;28;20032;-76
2022/04/03 09:21:44;;;;;;;2.88;1.52;;;;;;;12.02;46.77;102470.88;5266739;28;20031;-76
2022/04/03 09:24:14;;;;;;;2.72;1.25;;;;;;;12.05;47.87;102457.19;5266242;28;20166;-76
2022/04/03 09:26:57;;;;;;;3.25;1.70;;;;;;;12.21;45.01;102461.19;5248467;28;20560;-76
2022/04/03 09:29:27;;;;;;;4.57;1.63;;;;;;;11.51;42.97;102455.63;5248345;28;20086;-76
2022/04/03 09:32:00;;;;;;;3.17;1.30;;;;;;;10.82;51.84;102455.28;5266325;28;20055;-76
2022/04/03 09:34:33;;;;;;;2.92;1.35;;;;;;;11.29;50.25;102447.72;5265789;28;20024;-76
2022/04/03 09:37:05;;;;;;;6.90;1.77;;;;;;;11.46;53.55;102454.34;5266574;28;20048;-76
2022/04/03 09:39:35;;;;;;;5.13;1.48;;;;;;;11.88;51.46;102444.38;5265270;28;20058;-76
2022/04/03 09:42:09;;;;;;;2.90;1.48;;;;;;;12.27;46.72;102448.03;5253561;28;20065;-76
2022/04/03 09:44:41;;;;;;;4.97;1.92;;;;;;;12.07;45.32;102435.50;5265764;28;20115;-76
2022/04/03 09:47:26;;;;;;;2.72;1.60;;;;;;;11.42;44.73;102440.31;5266422;28;20028;-78
2022/04/03 09:49:59;;;;;;;6.32;2.25;;;;;;;11.06;46.69;102442.47;5266715;28;20112;-77
2022/04/03 09:52:51;;;;;;;4.65;1.80;;;;;;;11.06;47.06;102438.94;5267898;28;20499;-77
2022/04/03 09:55:24;;;;;;;5.13;2.13;;;;;;;11.44;46.98;102429.41;5270199;28;20016;-77
2022/04/03 09:58:13;;;;;;;3.45;1.80;;;;;;;11.44;46.45;102432.09;5270332;28;20026;-77
2022/04/03 10:00:44;;;;;;;4.07;1.60;;;;;;;11.12;47.37;102435.72;5270374;28;20130;-77
2022/04/03 10:03:15;;;;;;;5.40;2.05;;;;;;;10.23;51.56;102432.41;5270246;28;20034;-77
2022/04/03 10:05:46;;;;;;;6.95;2.30;;;;;;;11.22;46.01;102423.22;5251491;28;20073;-77
2022/04/03 10:08:19;;;;;;;4.55;2.35;;;;;;;11.23;46.14;102421.38;5270376;28;20036;-77
2022/04/03 10:10:49;;;;;;;7.35;2.05;;;;;;;10.59;48.66;102420.50;5269980;28;20099;-77
2022/04/03 10:13:20;;;;;;;3.47;1.95;;;;;;;10.40;52.27;102416.81;5269970;28;20461;-77
2022/04/03 10:15:52;;;;;;;2.80;1.70;;;;;;;10.19;45.85;102420.25;5257493;28;20095;-77
2022/04/03 10:18:22;;;;;;;4.75;2.33;;;;;;;9.91;48.63;102424.28;5270078;28;20390;-77
2022/04/03 10:20:53;;;;;;;6.88;2.03;;;;;;;9.58;52.22;102417.09;5269795;28;20016;-77
2022/04/03 10:23:25;;;;;;;2.85;1.90;;;;;;;9.87;53.93;102412.09;5269954;28;20030;-78
2022/04/03 10:25:56;;;;;;;4.95;2.53;;;;;;;10.06;49.11;102417.69;5270455;28;20024;-78
2022/04/03 10:28:27;;;;;;;5.00;2.30;;;;;;;10.19;49.61;102400.59;5253468;28;20469;-79
2022/04/03 10:31:06;;;;;;;2.83;1.92;;;;;;;10.22;50.51;102403.03;5271189;28;20103;-80
2022/04/03 10:33:39;;;;;;;4.13;2.53;;;;;;;10.12;49.24;102400.25;5251959;28;20028;-77
2022/04/03 10:36:12;;;;;;;14.75;8.25;;;;;;;10.26;47.99;102393.78;5269594;28;20027;-78
2022/04/03 10:38:45;;;;;;;6.15;2.92;;;;;;;10.40;50.22;102395.34;5269794;28;20068;-77
2022/04/03 10:41:35;;;;;;;5.47;1.67;;;;;;;10.80;43.54;102393.69;5257093;28;20074;-80
2022/04/03 10:44:25;;;;;;;3.63;1.50;;;;;;;10.68;44.80;102393.84;5253086;28;20055;-80
2022/04/03 10:47:17;;;;;;;2.67;1.45;;;;;;;10.84;50.38;102384.41;5271673;28;20020;-80
2022/04/03 10:50:00;;;;;;;2.35;1.40;;;;;;;10.89;47.88;102378.59;5253243;28;20020;-80
2022/04/03 10:52:44;;;;;;;2.42;1.50;;;;;;;11.01;44.79;102377.56;5271651;28;20024;-80
2022/04/03 10:55:20;;;;;;;5.93;1.52;;;;;;;11.46;46.78;102377.25;5271063;28;20036;-80
2022/04/03 10:57:51;;;;;;;2.83;1.35;;;;;;;11.54;44.39;102372.03;5253539;28;20036;-80
2022/04/03 11:00:23;;;;;;;6.07;1.50;;;;;;;11.49;44.29;102371.59;5253581;28;20077;-80
2022/04/03 11:03:29;;;;;;;2.03;1.20;;;;;;;11.25;43.43;102363.00;5239069;28;20551;-80
2022/04/03 11:06:18;;;;;;;2.97;1.20;;;;;;;11.12;45.31;102357.84;5270436;28;20035;-80
2022/04/03 11:09:03;;;;;;;3.67;1.70;;;;;;;11.26;46.74;102356.66;5271717;28;20032;-80
2022/04/03 11:11:36;;;;;;;1.73;1.25;;;;;;;11.20;42.34;102354.50;5272954;28;20032;-80
2022/04/03 11:14:08;;;;;;;3.00;1.60;;;;;;;10.69;43.24;102353.47;5232782;28;20025;-80
2022/04/03 11:16:52;;;;;;;4.72;2.33;;;;;;;10.73;42.36;102351.38;5262741;28;20023;-80
2022/04/03 11:19:35;;;;;;;2.35;1.52;;;;;;;10.72;43.00;102355.03;5270800;28;20065;-80
2022/04/03 11:22:08;;;;;;;3.53;1.30;;;;;;;11.38;40.57;102342.97;5270583;28;20051;-80
2022/04/03 11:24:39;;;;;;;4.38;1.48;;;;;;;11.45;42.18;102347.84;5270292;28;20549;-80
2022/04/03 11:27:10;;;;;;;3.30;1.40;;;;;;;11.53;44.40;102348.84;5270667;28;20103;-80
2022/04/03 11:29:40;;;;;;;6.90;2.22;;;;;;;12.19;41.05;102343.75;5270202;28;20046;-80
2022/04/03 11:32:12;;;;;;;3.30;1.20;;;;;;;12.36;38.85;102338.69;5252126;28;20020;-80
2022/04/03 11:34:43;;;;;;;2.75;1.35;;;;;;;12.08;43.94;102340.38;5251504;28;20038;-80
2022/04/03 11:37:13;;;;;;;2.90;1.30;;;;;;;11.97;41.47;102341.34;5270371;28;20020;-80
2022/04/03 11:39:45;;;;;;;1.90;1.20;;;;;;;10.81;42.76;102332.78;5250069;28;20095;-80
2022/04/03 11:42:15;;;;;;;3.65;1.48;;;;;;;10.44;42.60;102329.69;5258874;28;20032;-80